Time;durP1;ratioP1;P1;durP2;ratioP2;P2;SDS_P1;SDS_P2;PMS_P1;PMS_P2;Temp;Humidity;BMP_temperature;BMP_pressure;BME280_temperature;BME280_humidity;BME280_pressure;Samples;Min_cycle;Max_cycle;Signal;HPM_P1;HPM_P2
2022/11/29 05:23:11;;;;;;;4.15;3.20;;;;;;;7.27;100.00;100101.16;5109164;27;20365;-67
2022/11/29 05:26:11;;;;;;;5.28;3.20;;;;;;;7.31;100.00;100113.94;5109371;28;20047;-68
2022/11/29 05:28:41;;;;;;;6.88;3.72;;;;;;;7.33;100.00;100111.97;5109225;28;20027;-67
2022/11/29 05:31:28;;;;;;;7.38;3.67;;;;;;;7.34;100.00;100113.63;5109039;28;20046;-68
2022/11/29 05:33:54;;;;;;;7.78;3.60;;;;;;;7.35;100.00;100115.28;5108336;28;20036;-67
2022/11/29 05:36:53;;;;;;;6.70;3.47;;;;;;;7.41;100.00;100113.00;5109206;28;20529;-67
2022/11/29 05:39:36;;;;;;;3.20;2.67;;;;;;;7.40;100.00;100109.50;5109197;28;20089;-67
2022/11/29 05:42:13;;;;;;;9.27;4.50;;;;;;;7.43;100.00;100118.97;5108629;28;20079;-67
2022/11/29 05:45:26;;;;;;;3.75;2.53;;;;;;;7.40;100.00;100112.16;5109140;28;20077;-67
2022/11/29 05:48:03;;;;;;;8.00;3.13;;;;;;;7.39;100.00;100121.09;5086293;28;20039;-67
2022/11/29 05:50:40;;;;;;;6.13;3.28;;;;;;;7.35;100.00;100120.56;5085896;28;20044;-67
2022/11/29 05:53:22;;;;;;;4.72;2.78;;;;;;;7.39;100.00;100125.56;5101657;28;20055;-68
2022/11/29 05:56:16;;;;;;;4.10;2.70;;;;;;;7.37;100.00;100124.88;5108777;28;20484;-66
2022/11/29 05:58:53;;;;;;;4.50;2.33;;;;;;;7.35;100.00;100123.22;5107470;28;20377;-66
2022/11/29 06:01:25;;;;;;;10.27;3.08;;;;;;;7.41;100.00;100134.19;5108392;28;20039;-66
2022/11/29 06:04:06;;;;;;;7.80;3.25;;;;;;;7.39;100.00;100125.56;5109204;28;20181;-67
2022/11/29 06:06:40;;;;;;;5.10;3.22;;;;;;;7.39;100.00;100131.72;5108844;28;20038;-66
2022/11/29 06:09:16;;;;;;;4.22;2.75;;;;;;;7.38;100.00;100131.88;5108593;28;20036;-66
2022/11/29 06:11:45;;;;;;;5.55;2.85;;;;;;;7.40;100.00;100135.19;5107972;28;20092;-66
2022/11/29 06:14:30;;;;;;;5.47;3.28;;;;;;;7.40;100.00;100132.53;5108343;28;20043;-66
2022/11/29 06:17:40;;;;;;;5.15;2.63;;;;;;;7.39;100.00;100137.00;5107075;28;20039;-66
2022/11/29 06:20:22;;;;;;;5.85;3.08;;;;;;;7.42;100.00;100146.44;5107717;28;20082;-65
2022/11/29 06:22:53;;;;;;;6.70;2.97;;;;;;;7.43;100.00;100143.63;5108383;28;20035;-67
2022/11/29 06:25:49;;;;;;;5.47;3.08;;;;;;;7.45;100.00;100154.94;5106792;28;20353;-67
2022/11/29 06:28:34;;;;;;;4.30;2.65;;;;;;;7.44;100.00;100153.28;5108291;28;20043;-67
2022/11/29 06:31:27;;;;;;;5.38;2.85;;;;;;;7.47;100.00;100154.78;5107739;28;20412;-67
2022/11/29 06:34:10;;;;;;;6.60;3.47;;;;;;;7.45;100.00;100156.75;5095285;28;20047;-67
2022/11/29 06:37:07;;;;;;;6.25;3.20;;;;;;;7.46;100.00;100155.75;5094340;28;20028;-66
2022/11/29 06:39:32;;;;;;;4.57;3.07;;;;;;;7.48;100.00;100157.25;5094453;28;20040;-67
2022/11/29 06:41:58;;;;;;;8.18;3.17;;;;;;;7.49;100.00;100158.09;5092589;28;20036;-66
2022/11/29 06:44:24;;;;;;;5.80;3.17;;;;;;;7.47;100.00;100154.78;5094248;28;20032;-66
2022/11/29 06:47:07;;;;;;;3.65;2.80;;;;;;;7.48;100.00;100159.09;5094024;28;20446;-66
2022/11/29 06:49:53;;;;;;;9.32;3.20;;;;;;;7.48;100.00;100156.44;5094218;28;20098;-66
2022/11/29 06:52:27;;;;;;;4.03;2.95;;;;;;;7.42;100.00;100165.84;5093866;28;20028;-66
2022/11/29 06:55:13;;;;;;;8.32;3.35;;;;;;;7.46;100.00;100163.72;5094151;28;20400;-67
2022/11/29 06:58:03;;;;;;;5.05;3.30;;;;;;;7.47;100.00;100173.31;5094102;28;20032;-66
2022/11/29 07:00:56;;;;;;;7.15;4.38;;;;;;;7.48;100.00;100178.47;5093773;28;20070;-65
2022/11/29 07:03:42;;;;;;;9.25;4.50;;;;;;;7.50;100.00;100181.00;5093994;28;20028;-65
2022/11/29 07:06:17;;;;;;;7.95;4.35;;;;;;;7.50;100.00;100178.34;5093755;28;20485;-65
2022/11/29 07:08:44;;;;;;;6.32;3.72;;;;;;;7.49;100.00;100179.28;5093911;28;20036;-65
2022/11/29 07:11:12;;;;;;;6.05;3.65;;;;;;;7.50;100.00;100170.38;5093374;28;20134;-65
2022/11/29 07:13:37;;;;;;;;;;;;;;;7.52;100.00;100184.31;5095859;28;20066;-66
2022/11/29 07:16:16;;;;;;;11.80;2.97;;;;;;;7.56;100.00;100185.63;5094199;28;19916;-67
2022/11/29 07:19:07;;;;;;;6.05;3.47;;;;;;;7.54;100.00;100183.16;5093703;28;20042;-66
2022/11/29 07:21:47;;;;;;;6.82;3.53;;;;;;;7.56;100.00;100193.59;5093293;28;20036;-66
2022/11/29 07:24:28;;;;;;;7.03;4.03;;;;;;;7.59;100.00;100193.31;5093636;28;20043;-66
2022/11/29 07:27:03;;;;;;;6.90;3.78;;;;;;;7.58;100.00;100184.50;5092219;28;20476;-66
2022/11/29 07:29:58;;;;;;;7.10;3.60;;;;;;;7.58;100.00;100199.59;5093432;28;20056;-65
2022/11/29 07:33:00;;;;;;;6.85;3.33;;;;;;;7.59;100.00;100196.78;5093119;28;20089;-65
2022/11/29 07:35:52;;;;;;;7.88;3.53;;;;;;;7.60;100.00;100192.31;5093257;28;20123;-65
2022/11/29 07:38:32;;;;;;;10.35;2.97;;;;;;;7.63;100.00;100207.91;5093274;28;20035;-68
2022/11/29 07:41:05;;;;;;;6.55;3.53;;;;;;;7.66;100.00;100201.47;5092780;28;20529;-67
2022/11/29 07:43:42;;;;;;;8.95;3.85;;;;;;;7.66;100.00;100212.06;5092894;28;20462;-68
2022/11/29 07:46:08;;;;;;;8.40;3.95;;;;;;;7.66;100.00;100215.56;5092647;28;20059;-67
2022/11/29 07:48:33;;;;;;;7.05;3.80;;;;;;;7.63;100.00;100207.91;5093132;28;20114;-68
2022/11/29 07:50:59;;;;;;;8.00;3.65;;;;;;;7.67;100.00;100209.25;5092595;28;20028;-68
2022/11/29 07:53:25;;;;;;;8.63;3.45;;;;;;;7.67;100.00;100209.25;5092015;28;20546;-68
2022/11/29 07:55:50;;;;;;;9.30;3.95;;;;;;;7.69;100.00;100217.03;5093967;28;20055;-68
2022/11/29 07:58:16;;;;;;;6.93;3.33;;;;;;;7.68;100.00;100200.31;5093942;28;20500;-68
2022/11/29 08:00:43;;;;;;;10.57;4.15;;;;;;;7.70;100.00;100214.25;5091187;28;20040;-67
2022/11/29 08:03:10;;;;;;;7.97;4.10;;;;;;;7.70;100.00;100213.44;5092821;28;20036;-68
2022/11/29 08:05:36;;;;;;;6.20;3.80;;;;;;;7.69;100.00;100211.75;5092668;28;20031;-68
2022/11/29 08:08:02;;;;;;;9.77;4.55;;;;;;;7.70;100.00;100218.72;5092693;28;20051;-68
2022/11/29 08:10:27;;;;;;;6.57;4.10;;;;;;;7.73;100.00;100218.41;5092121;28;20044;-69
2022/11/29 08:12:53;;;;;;;8.50;4.47;;;;;;;7.71;100.00;100220.41;5092528;28;20036;-68
2022/11/29 08:15:21;;;;;;;6.63;4.03;;;;;;;7.72;100.00;100222.06;5092484;28;20043;-68
2022/11/29 08:17:46;;;;;;;7.53;3.85;;;;;;;7.69;100.00;100220.53;5092911;28;20115;-68
2022/11/29 08:20:14;;;;;;;6.88;3.55;;;;;;;7.71;100.00;100218.56;5092122;28;20685;-68
2022/11/29 08:22:39;;;;;;;10.93;4.63;;;;;;;7.73;100.00;100221.88;5092403;28;20492;-69
2022/11/29 08:25:06;;;;;;;6.40;4.03;;;;;;;7.74;100.00;100234.16;5092280;28;20036;-69
2022/11/29 08:27:32;;;;;;;12.35;3.72;;;;;;;7.76;100.00;100234.84;5092183;28;20040;-68
2022/11/29 08:29:57;;;;;;;6.60;3.75;;;;;;;7.77;100.00;100236.50;5092111;28;20059;-67
2022/11/29 08:32:23;;;;;;;11.18;3.92;;;;;;;7.72;100.00;100238.78;5091882;28;20489;-68
2022/11/29 08:34:49;;;;;;;7.47;3.67;;;;;;;7.74;100.00;100238.63;5092051;28;20044;-67
2022/11/29 08:37:14;;;;;;;6.60;3.83;;;;;;;7.77;100.00;100248.94;5092091;28;20158;-67
2022/11/29 08:39:40;;;;;;;7.82;4.18;;;;;;;7.75;100.00;100249.06;5090693;28;20469;-66
2022/11/29 08:42:05;;;;;;;8.50;4.25;;;;;;;7.75;100.00;100254.38;5090357;28;20068;-66
2022/11/29 08:44:30;;;;;;;6.68;4.03;;;;;;;7.77;100.00;100256.91;5091954;28;20043;-69
2022/11/29 08:49:59;;;;;;;8.70;4.03;;;;;;;7.79;100.00;100246.97;5091912;28;20032;-69
2022/11/29 08:55:10;;;;;;;6.85;4.35;;;;;;;7.80;100.00;100264.53;5091480;28;20043;-68
2022/11/29 08:57:36;;;;;;;9.07;4.82;;;;;;;7.80;100.00;100264.53;5091717;28;20024;-68
2022/11/29 09:00:04;;;;;;;12.05;5.78;;;;;;;7.79;100.00;100268.19;5090197;28;20031;-68
2022/11/29 09:02:29;;;;;;;10.38;5.68;;;;;;;7.80;100.00;100265.34;5090207;28;20165;-68
2022/11/29 09:04:55;;;;;;;14.68;7.13;;;;;;;7.81;100.00;100274.16;5091662;28;20118;-69
2022/11/29 09:07:20;;;;;;;16.25;6.60;;;;;;;7.80;100.00;100267.19;5091451;28;20036;-68
2022/11/29 09:09:46;;;;;;;12.82;6.88;;;;;;;7.80;100.00;100275.97;5091679;28;20067;-68
2022/11/29 09:12:11;;;;;;;15.90;7.80;;;;;;;7.79;100.00;100273.47;5091338;28;20489;-68
2022/11/29 09:14:36;;;;;;;12.75;6.78;;;;;;;7.82;100.00;100287.28;5091675;28;20040;-68
2022/11/29 09:17:02;;;;;;;13.52;7.03;;;;;;;7.78;100.00;100293.88;5090407;28;20032;-69
2022/11/29 09:19:27;;;;;;;16.55;8.27;;;;;;;7.77;100.00;100286.06;5091639;28;20071;-68
2022/11/29 09:21:53;;;;;;;15.48;6.95;;;;;;;7.79;100.00;100292.03;5091323;28;20036;-69
2022/11/29 09:24:19;;;;;;;18.27;8.15;;;;;;;7.69;100.00;100291.28;5091448;28;20059;-69
2022/11/29 09:26:47;;;;;;;15.48;8.23;;;;;;;7.72;100.00;100297.13;5091533;28;20032;-69
2022/11/29 09:29:14;;;;;;;13.50;7.78;;;;;;;7.70;100.00;100296.47;5091550;28;20063;-69
2022/11/29 09:31:40;;;;;;;15.85;8.35;;;;;;;7.73;100.00;100300.63;5091157;28;20032;-69
2022/11/29 09:34:05;;;;;;;18.33;8.63;;;;;;;7.72;100.00;100298.94;5091544;28;20031;-69
2022/11/29 09:36:31;;;;;;;15.75;7.88;;;;;;;7.70;100.00;100301.75;5091358;28;20400;-69
2022/11/29 09:39:01;;;;;;;13.75;7.22;;;;;;;7.65;100.00;100311.16;5091409;28;20415;-69
2022/11/29 09:41:36;;;;;;;16.05;7.82;;;;;;;7.59;100.00;100317.91;5090001;28;20089;-69
2022/11/29 09:44:26;;;;;;;14.73;7.30;;;;;;;7.64;100.00;100320.94;5091478;28;20386;-70
2022/11/29 09:47:01;;;;;;;17.75;7.97;;;;;;;7.62;100.00;100321.06;5091287;28;20024;-70
2022/11/29 09:49:41;;;;;;;13.82;7.18;;;;;;;7.66;100.00;100321.59;5091495;28;20135;-69
2022/11/29 09:52:33;;;;;;;16.58;7.40;;;;;;;7.62;100.00;100318.41;5091028;28;20040;-69
2022/11/29 09:55:04;;;;;;;13.05;6.97;;;;;;;7.66;100.00;100318.13;5091247;28;20548;-70
2022/11/29 09:57:30;;;;;;;13.77;6.93;;;;;;;7.64;100.00;100320.09;5091267;28;20030;-69
2022/11/29 10:00:00;;;;;;;13.35;7.10;;;;;;;7.60;100.00;100319.56;5091055;28;20032;-69
2022/11/29 10:02:29;;;;;;;11.73;6.63;;;;;;;7.64;100.00;100331.53;5089915;28;20330;-68
2022/11/29 10:05:08;;;;;;;12.10;7.22;;;;;;;7.68;100.00;100335.53;5091131;28;20078;-70
2022/11/29 10:07:42;;;;;;;11.63;6.63;;;;;;;7.71;100.00;100331.75;5090667;28;20131;-68
2022/11/29 10:10:16;;;;;;;12.32;7.18;;;;;;;7.66;100.00;100334.84;5095053;28;20342;-69
2022/11/29 10:13:12;;;;;;;14.15;6.97;;;;;;;7.72;100.00;100334.25;5094989;28;20071;-68
2022/11/29 10:15:42;;;;;;;17.33;7.73;;;;;;;7.78;100.00;100338.13;5094939;28;20036;-68
2022/11/29 10:18:22;;;;;;;11.30;6.93;;;;;;;7.77;100.00;100331.16;5093624;28;20036;-68
2022/11/29 10:20:51;;;;;;;9.85;5.82;;;;;;;7.80;100.00;100326.34;5094400;28;20204;-68
2022/11/29 10:23:34;;;;;;;10.25;5.85;;;;;;;7.85;100.00;100333.84;5094830;28;20566;-68
2022/11/29 10:26:00;;;;;;;11.82;6.50;;;;;;;7.83;100.00;100326.06;5094873;28;20054;-67
2022/11/29 10:28:30;;;;;;;11.65;6.57;;;;;;;7.89;100.00;100332.59;5094781;28;20532;-67
2022/11/29 10:31:02;;;;;;;9.65;5.78;;;;;;;7.90;100.00;100328.94;5094287;28;20040;-68
2022/11/29 10:33:33;;;;;;;9.98;5.90;;;;;;;7.83;100.00;100318.09;5094532;28;20058;-68
2022/11/29 10:36:03;;;;;;;10.82;6.63;;;;;;;7.93;100.00;100327.78;5094422;28;20040;-68
2022/11/29 10:38:29;;;;;;;8.85;5.82;;;;;;;7.95;100.00;100325.81;5094432;28;20040;-68
2022/11/29 10:41:08;;;;;;;13.57;7.28;;;;;;;7.95;100.00;100325.81;5094108;28;20043;-68
2022/11/29 10:43:36;;;;;;;12.50;6.85;;;;;;;8.00;100.00;100320.88;5093290;28;20031;-67
2022/11/29 10:46:02;;;;;;;10.40;6.22;;;;;;;7.98;100.00;100326.34;5094407;28;20035;-68
2022/11/29 10:48:31;;;;;;;8.65;5.60;;;;;;;8.02;100.00;100322.41;5094087;28;20036;-68
2022/11/29 10:50:56;;;;;;;10.10;6.47;;;;;;;8.09;100.00;100327.91;5093738;28;20043;-68
2022/11/29 10:53:25;;;;;;;11.07;6.43;;;;;;;8.18;100.00;100319.00;5094080;28;20040;-68
2022/11/29 10:56:05;;;;;;;10.05;5.35;;;;;;;8.20;100.00;100322.34;5093901;28;20044;-68
2022/11/29 10:58:31;;;;;;;9.00;6.38;;;;;;;8.19;100.00;100320.66;5093933;28;20039;-68
2022/11/29 11:01:07;;;;;;;10.45;5.93;;;;;;;8.21;100.00;100313.38;5093658;28;20028;-67
2022/11/29 11:03:41;;;;;;;9.35;5.97;;;;;;;8.29;100.00;100310.81;5094026;28;20048;-69
2022/11/29 11:06:12;;;;;;;11.40;7.32;;;;;;;8.21;100.00;100313.38;5093924;28;20114;-67
2022/11/29 11:08:44;;;;;;;12.10;6.63;;;;;;;8.27;100.00;100312.75;5093840;28;20044;-67
2022/11/29 11:11:11;;;;;;;14.68;7.00;;;;;;;8.30;100.00;100311.63;5093522;28;20084;-68
2022/11/29 11:13:38;;;;;;;10.75;6.65;;;;;;;8.32;100.00;100312.28;5092399;28;20134;-68
2022/11/29 11:16:18;;;;;;;12.93;6.33;;;;;;;8.37;100.00;100310.03;5093703;28;20491;-67
2022/11/29 11:18:46;;;;;;;13.40;7.03;;;;;;;8.35;100.00;100304.91;5093591;28;20166;-69
2022/11/29 11:21:18;;;;;;;12.00;7.05;;;;;;;8.36;100.00;100311.03;5093262;28;20505;-67
2022/11/29 11:23:52;;;;;;;15.60;6.55;;;;;;;8.30;100.00;100295.72;5093750;28;20400;-68
2022/11/29 11:26:18;;;;;;;11.13;6.97;;;;;;;8.34;100.00;100313.78;5093463;28;20108;-68
2022/11/29 11:28:55;;;;;;;13.60;6.55;;;;;;;8.32;100.00;100314.94;5093544;28;20126;-68
2022/11/29 11:31:31;;;;;;;12.07;7.05;;;;;;;8.38;100.00;100322.31;5093087;28;20028;-68
2022/11/29 11:34:25;;;;;;;12.73;7.22;;;;;;;8.39;100.00;100310.72;5093736;28;20071;-67
2022/11/29 11:36:52;;;;;;;12.15;6.85;;;;;;;8.35;100.00;100320.81;5093123;28;20123;-67
2022/11/29 11:39:22;;;;;;;11.82;6.32;;;;;;;8.32;100.00;100320.25;5093451;28;20039;-67
2022/11/29 11:44:39;;;;;;;15.38;6.72;;;;;;;8.42;100.00;100315.72;5093246;28;20081;-67
2022/11/29 11:47:14;;;;;;;9.73;6.43;;;;;;;8.52;100.00;100318.25;5093096;28;20028;-67
2022/11/29 11:50:02;;;;;;;12.45;7.25;;;;;;;8.49;100.00;100319.41;5091834;28;20036;-67
2022/11/29 11:52:35;;;;;;;10.50;5.95;;;;;;;8.58;100.00;100325.56;5092862;28;20039;-67
2022/11/29 11:55:21;;;;;;;16.95;7.72;;;;;;;8.63;100.00;100326.78;5093004;28;20442;-67
2022/11/29 11:58:15;;;;;;;10.38;6.28;;;;;;;8.64;100.00;100332.91;5093101;28;20051;-66
2022/11/29 12:01:14;;;;;;;11.85;6.70;;;;;;;8.65;100.00;100329.25;5092619;28;20069;-67
2022/11/29 12:03:44;;;;;;;14.25;7.35;;;;;;;8.64;100.00;100331.09;5089748;28;20409;-67
2022/11/29 12:06:34;;;;;;;14.15;7.38;;;;;;;8.63;100.00;100336.56;5092850;28;20028;-67
2022/11/29 12:09:22;;;;;;;15.90;7.93;;;;;;;8.63;100.00;100332.09;5092875;28;20118;-67
2022/11/29 12:12:21;;;;;;;13.85;7.88;;;;;;;8.60;100.00;100335.03;5092392;28;20032;-67
2022/11/29 12:15:14;;;;;;;11.23;7.20;;;;;;;8.68;100.00;100339.59;5092648;28;20165;-67
2022/11/29 12:17:44;;;;;;;13.98;8.05;;;;;;;8.68;100.00;100340.41;5092647;28;20040;-67
2022/11/29 12:20:33;;;;;;;14.07;8.30;;;;;;;8.61;100.00;100334.06;5092339;28;20040;-67
2022/11/29 12:23:10;;;;;;;13.25;8.23;;;;;;;8.62;100.00;100340.22;5092641;28;20024;-67
2022/11/29 12:25:44;;;;;;;15.88;8.52;;;;;;;8.62;100.00;100341.03;5092482;28;20032;-67
2022/11/29 12:28:15;;;;;;;16.17;8.25;;;;;;;8.65;100.00;100346.03;5092638;28;20138;-66
2022/11/29 12:30:50;;;;;;;16.98;8.80;;;;;;;8.58;100.00;100341.50;5091526;28;20034;-67
2022/11/29 12:33:37;;;;;;;15.10;8.43;;;;;;;8.65;100.00;100345.19;5092417;28;20040;-67
2022/11/29 12:36:27;;;;;;;16.38;8.93;;;;;;;8.61;100.00;100342.03;5092238;28;20039;-67
2022/11/29 12:39:16;;;;;;;14.95;7.97;;;;;;;8.54;100.00;100341.00;5092237;28;20400;-67
2022/11/29 12:42:08;;;;;;;13.85;7.63;;;;;;;8.57;100.00;100345.16;5091906;28;20111;-67
2022/11/29 12:45:01;;;;;;;15.30;8.25;;;;;;;8.58;100.00;100342.34;5091047;28;20031;-67
2022/11/29 12:48:04;;;;;;;14.05;6.88;;;;;;;8.62;100.00;100345.53;5091942;28;20104;-67
2022/11/29 12:50:58;;;;;;;15.52;7.90;;;;;;;8.51;100.00;100341.31;5091687;28;20047;-67
2022/11/29 12:53:50;;;;;;;14.98;8.27;;;;;;;8.57;100.00;100342.50;5092063;28;20036;-66
2022/11/29 12:56:38;;;;;;;13.93;6.50;;;;;;;8.62;100.00;100348.19;5090614;28;20477;-67
2022/11/29 12:59:24;;;;;;;13.48;8.02;;;;;;;8.58;100.00;100344.16;5091982;28;20074;-67
2022/11/29 13:02:27;;;;;;;16.83;7.57;;;;;;;8.65;100.00;100348.69;5090238;28;20058;-67
2022/11/29 13:05:02;;;;;;;13.73;7.57;;;;;;;8.59;100.00;100348.47;5091818;28;20041;-67
2022/11/29 13:07:38;;;;;;;13.98;7.47;;;;;;;8.57;100.00;100356.59;5091811;28;20040;-67
2022/11/29 13:10:39;;;;;;;14.25;7.32;;;;;;;8.56;100.00;100354.94;5091613;28;20036;-67
2022/11/29 13:13:21;;;;;;;10.80;7.15;;;;;;;8.59;100.00;100351.13;5083028;28;20412;-66
2022/11/29 13:16:06;;;;;;;13.48;8.07;;;;;;;8.55;100.00;100363.09;5091509;28;20071;-67
2022/11/29 13:18:42;;;;;;;12.60;7.22;;;;;;;8.54;100.00;100361.38;5091561;28;20036;-66
2022/11/29 13:21:19;;;;;;;11.40;6.18;;;;;;;8.53;100.00;100360.56;5091164;28;20028;-67
2022/11/29 13:23:55;;;;;;;11.87;6.60;;;;;;;8.55;100.00;100357.78;5091599;28;20407;-67
2022/11/29 13:26:23;;;;;;;14.95;7.38;;;;;;;8.53;100.00;100365.03;5091477;28;20036;-66
2022/11/29 13:28:49;;;;;;;14.48;7.88;;;;;;;8.54;100.00;100361.38;5091552;28;20070;-67
2022/11/29 13:31:19;;;;;;;10.98;7.32;;;;;;;8.48;100.00;100356.72;5091005;28;20044;-66
2022/11/29 13:33:54;;;;;;;12.65;7.00;;;;;;;8.54;100.00;100362.25;5091533;28;20085;-66
2022/11/29 13:36:44;;;;;;;13.05;7.18;;;;;;;8.47;100.00;100360.34;5091414;28;20454;-66
2022/11/29 13:39:33;;;;;;;13.85;7.35;;;;;;;8.52;100.00;100358.06;5091372;28;20081;-67
2022/11/29 13:42:14;;;;;;;13.75;6.88;;;;;;;8.45;100.00;100357.03;5091114;28;20063;-67
2022/11/29 13:44:58;;;;;;;12.27;7.43;;;;;;;8.50;100.00;100371.50;5095461;28;20039;-67
2022/11/29 13:47:24;;;;;;;12.25;7.10;;;;;;;8.41;100.00;100348.53;5095420;28;20047;-66
2022/11/29 13:50:02;;;;;;;13.93;6.75;;;;;;;8.42;100.00;100366.97;5095205;28;20043;-66
2022/11/29 13:52:41;;;;;;;14.32;6.57;;;;;;;8.38;100.00;100362.97;5095206;28;20028;-67
2022/11/29 13:55:10;;;;;;;11.05;6.78;;;;;;;8.41;100.00;100369.78;5095288;28;20050;-67
2022/11/29 13:58:21;;;;;;;11.45;6.50;;;;;;;8.41;100.00;100369.78;5095163;28;20024;-66
2022/11/29 14:00:50;;;;;;;15.27;6.40;;;;;;;8.37;100.00;100363.97;5094862;28;20044;-66
2022/11/29 14:03:30;;;;;;;13.02;6.25;;;;;;;8.41;100.00;100369.78;5095236;28;20485;-67
2022/11/29 14:06:01;;;;;;;14.07;6.47;;;;;;;8.41;100.00;100377.72;5095044;28;20059;-67
2022/11/29 14:08:33;;;;;;;14.02;7.47;;;;;;;8.39;100.00;100377.06;5095120;28;20040;-67
2022/11/29 14:11:07;;;;;;;11.23;5.97;;;;;;;8.37;100.00;100373.75;5094483;28;20036;-67
2022/11/29 14:13:54;;;;;;;14.60;6.40;;;;;;;8.38;100.00;100372.75;5095001;28;20082;-66
2022/11/29 14:16:33;;;;;;;17.50;7.25;;;;;;;8.37;100.00;100376.41;5094937;28;20040;-66
2022/11/29 14:19:20;;;;;;;15.18;6.88;;;;;;;8.41;100.00;100378.59;5094976;28;20113;-66
2022/11/29 14:21:57;;;;;;;10.15;5.60;;;;;;;8.40;100.00;100387.53;5094398;28;20118;-66
2022/11/29 14:24:34;;;;;;;14.60;6.78;;;;;;;8.42;100.00;100385.56;5094866;28;20431;-67
2022/11/29 14:27:09;;;;;;;10.82;5.63;;;;;;;8.39;100.00;100385.88;5094630;28;20043;-66
2022/11/29 14:29:46;;;;;;;13.98;6.45;;;;;;;8.39;100.00;100380.56;5094737;28;20039;-67
2022/11/29 14:32:39;;;;;;;12.25;7.07;;;;;;;8.38;100.00;100383.38;5095122;28;20036;-67
2022/11/29 14:35:10;;;;;;;13.73;6.10;;;;;;;8.35;100.00;100381.00;5094495;28;20032;-67
2022/11/29 14:37:47;;;;;;;13.40;6.97;;;;;;;8.34;100.00;100379.31;5094526;28;20473;-67
2022/11/29 14:40:39;;;;;;;14.75;7.68;;;;;;;8.37;100.00;100387.00;5094159;28;20089;-67
2022/11/29 14:43:21;;;;;;;13.10;7.18;;;;;;;8.36;100.00;100391.50;5085500;28;20545;-67
2022/11/29 14:46:04;;;;;;;12.50;6.85;;;;;;;8.35;100.00;100395.16;5094315;28;20048;-68
2022/11/29 14:48:32;;;;;;;13.57;7.13;;;;;;;8.34;100.00;100388.09;5094390;28;20116;-67
2022/11/29 14:51:28;;;;;;;12.32;7.20;;;;;;;8.33;100.00;100386.44;5093981;28;20040;-67
2022/11/29 14:54:16;;;;;;;11.88;7.10;;;;;;;8.37;100.00;100390.50;5089225;28;20051;-67
2022/11/29 14:56:44;;;;;;;14.43;7.65;;;;;;;8.37;100.00;100395.81;5093906;28;20082;-67
2022/11/29 14:59:37;;;;;;;14.13;6.22;;;;;;;8.38;100.00;100394.00;5094024;28;20032;-67
2022/11/29 15:02:25;;;;;;;12.02;6.95;;;;;;;8.36;100.00;100403.94;5093576;28;20071;-68
2022/11/29 15:04:54;;;;;;;11.50;7.15;;;;;;;8.37;100.00;100403.78;5092629;28;20032;-67
2022/11/29 15:07:27;;;;;;;15.05;7.82;;;;;;;8.37;100.00;100402.94;5093799;28;20046;-67
2022/11/29 15:09:55;;;;;;;11.10;6.43;;;;;;;8.33;100.00;100405.03;5093751;28;20054;-67
2022/11/29 15:12:25;;;;;;;12.85;6.70;;;;;;;8.34;100.00;100404.03;5093612;28;20036;-67
2022/11/29 15:15:09;;;;;;;14.05;7.47;;;;;;;8.26;100.00;100411.94;5093758;28;20047;-67
2022/11/29 15:17:57;;;;;;;13.30;6.55;;;;;;;8.22;100.00;100413.25;5092421;28;20046;-67
2022/11/29 15:20:34;;;;;;;12.55;5.40;;;;;;;8.28;100.00;100419.75;5093383;28;20463;-67
2022/11/29 15:23:08;;;;;;;10.75;6.13;;;;;;;8.22;100.00;100421.22;5093702;28;20049;-68
2022/11/29 15:25:35;;;;;;;10.32;5.13;;;;;;;8.20;100.00;100417.88;5093871;28;20401;-67
2022/11/29 15:28:04;;;;;;;8.90;5.35;;;;;;;8.15;100.00;100423.66;5093488;28;20044;-67
2022/11/29 15:30:34;;;;;;;9.10;5.22;;;;;;;8.20;100.00;100428.47;5093176;28;20044;-67
2022/11/29 15:33:02;;;;;;;10.40;5.55;;;;;;;8.23;100.00;100425.53;5093421;28;20748;-68
2022/11/29 15:35:28;;;;;;;14.43;5.80;;;;;;;8.25;100.00;100428.84;5093432;28;20118;-67
2022/11/29 15:37:54;;;;;;;11.70;5.63;;;;;;;8.22;100.00;100429.19;5093340;28;20040;-67
2022/11/29 15:40:30;;;;;;;11.10;6.20;;;;;;;8.17;100.00;100428.81;5092859;28;20133;-68
2022/11/29 15:43:17;;;;;;;13.70;5.90;;;;;;;8.22;100.00;100431.84;5093208;28;20043;-67
2022/11/29 15:45:47;;;;;;;13.13;5.80;;;;;;;8.19;100.00;100439.25;5093246;28;20050;-67
2022/11/29 15:48:25;;;;;;;12.20;6.03;;;;;;;8.10;100.00;100428.59;5093131;28;20032;-67
2022/11/29 15:51:15;;;;;;;15.30;6.85;;;;;;;8.13;100.00;100436.22;5092609;28;20174;-67
2022/11/29 15:53:43;;;;;;;10.50;6.20;;;;;;;8.19;100.00;100441.91;5093086;28;20089;-67
2022/11/29 15:56:25;;;;;;;14.93;6.63;;;;;;;8.09;100.00;100445.50;5092944;28;20039;-67
2022/11/29 15:58:58;;;;;;;13.77;6.47;;;;;;;8.13;100.00;100446.00;5092855;28;20062;-67
2022/11/29 16:01:23;;;;;;;12.15;5.28;;;;;;;8.09;100.00;100445.50;5092583;28;20050;-67
2022/11/29 16:03:53;;;;;;;17.55;7.60;;;;;;;8.06;100.00;100452.91;5092856;28;20094;-67
2022/11/29 16:06:51;;;;;;;17.63;6.18;;;;;;;8.12;100.00;100447.00;5091783;28;20047;-66
2022/11/29 16:09:34;;;;;;;13.43;5.68;;;;;;;8.16;100.00;100451.03;5087971;28;20361;-65
2022/11/29 16:12:00;;;;;;;15.75;7.28;;;;;;;8.14;100.00;100451.16;5092464;28;20036;-67
2022/11/29 16:14:29;;;;;;;12.95;6.22;;;;;;;8.10;100.00;100451.63;5092500;28;20232;-66
2022/11/29 16:16:59;;;;;;;14.50;6.90;;;;;;;8.13;100.00;100449.50;5092398;28;20044;-65
2022/11/29 16:19:27;;;;;;;14.82;6.70;;;;;;;8.12;100.00;100453.13;5092459;28;20039;-66
2022/11/29 16:22:11;;;;;;;16.35;7.13;;;;;;;8.15;100.00;100457.31;5092153;28;20100;-65
2022/11/29 16:25:05;;;;;;;18.13;7.07;;;;;;;8.10;100.00;100455.13;5092334;28;20052;-65
2022/11/29 16:27:35;;;;;;;15.77;8.40;;;;;;;8.06;100.00;100458.22;5089892;28;20048;-65
2022/11/29 16:30:01;;;;;;;16.50;6.80;;;;;;;8.11;100.00;100456.78;5092309;28;20039;-66
2022/11/29 16:32:33;;;;;;;12.93;6.05;;;;;;;8.11;100.00;100462.09;5092047;28;20032;-66
2022/11/29 16:35:11;;;;;;;21.02;6.72;;;;;;;8.10;100.00;100460.41;5092238;28;20044;-63
2022/11/29 16:37:40;;;;;;;19.90;8.35;;;;;;;8.10;100.00;100459.59;5092386;28;20035;-66
2022/11/29 16:40:23;;;;;;;16.30;7.95;;;;;;;8.10;100.00;100462.25;5091997;28;20256;-65
2022/11/29 16:43:07;;;;;;;13.95;7.03;;;;;;;8.13;100.00;100469.88;5092113;28;20052;-67
2022/11/29 16:45:36;;;;;;;13.40;6.10;;;;;;;8.08;100.00;100469.50;5091971;28;20046;-66
2022/11/29 16:48:27;;;;;;;14.82;6.93;;;;;;;8.12;100.00;100469.06;5092035;28;20073;-67
2022/11/29 16:51:15;;;;;;;19.55;7.63;;;;;;;8.03;100.00;100469.13;5091631;28;20032;-66
2022/11/29 16:53:41;;;;;;;;;;;;;;;8.07;100.00;100470.50;5091218;28;20036;-67
2022/11/29 16:56:10;;;;;;;14.35;6.28;;;;;;;8.08;100.00;100466.84;5091722;28;19912;-67
2022/11/29 16:58:35;;;;;;;20.55;8.43;;;;;;;8.07;100.00;100466.00;5091857;28;20127;-66
2022/11/29 17:01:20;;;;;;;17.58;7.55;;;;;;;8.07;100.00;100475.78;5091484;28;20046;-66
2022/11/29 17:03:45;;;;;;;13.43;6.53;;;;;;;8.04;100.00;100466.34;5091823;28;20036;-66
2022/11/29 17:06:17;;;;;;;15.18;7.30;;;;;;;8.11;100.00;100477.16;5091774;28;20481;-66
2022/11/29 17:08:44;;;;;;;19.40;8.48;;;;;;;8.13;100.00;100475.19;5091771;28;20043;-66
2022/11/29 17:11:12;;;;;;;16.33;8.50;;;;;;;8.13;100.00;100478.69;5091310;28;20068;-68
2022/11/29 17:13:38;;;;;;;20.83;9.05;;;;;;;8.15;100.00;100474.06;5091658;28;20028;-66
2022/11/29 17:16:04;;;;;;;22.02;9.80;;;;;;;8.16;100.00;100474.91;5091352;28;20671;-67
2022/11/29 17:18:29;;;;;;;23.50;9.75;;;;;;;8.11;100.00;100477.16;5091685;28;20043;-66
2022/11/29 17:20:56;;;;;;;31.00;13.43;;;;;;;8.17;100.00;100473.91;5089924;28;20032;-67
2022/11/29 17:23:21;;;;;;;31.10;13.25;;;;;;;8.18;100.00;100477.41;5091648;28;20032;-66
2022/11/29 17:25:57;;;;;;;28.95;12.40;;;;;;;8.20;100.00;100475.41;5091450;28;20181;-68
2022/11/29 17:28:22;;;;;;;23.75;10.68;;;;;;;8.16;100.00;100469.59;5091496;28;20036;-67
2022/11/29 17:30:47;;;;;;;24.77;11.98;;;;;;;8.17;100.00;100471.25;5091040;28;20036;-66